Time;durP1;ratioP1;P1;durP2;ratioP2;P2;SDS_P1;SDS_P2;PMS_P1;PMS_P2;Temp;Humidity;BMP_temperature;BMP_pressure;BME280_temperature;BME280_humidity;BME280_pressure;Samples;Min_cycle;Max_cycle;Signal;HPM_P1;HPM_P2
2023/05/13 00:00:14;;;;;;;14.63;7.17;;;;;;;10.35;100.00;101972.22;7386269;19;20433;-38
2023/05/13 00:02:43;;;;;;;14.80;6.97;;;;;;;10.32;100.00;101983.25;7389104;19;20391;-38
2023/05/13 00:05:16;;;;;;;13.23;7.03;;;;;;;10.33;100.00;101976.38;7387733;19;21014;-37
2023/05/13 00:07:45;;;;;;;13.57;6.77;;;;;;;10.29;100.00;101982.19;7387945;19;20396;-38
2023/05/13 00:10:15;;;;;;;13.10;6.60;;;;;;;10.24;100.00;101985.34;7385726;19;20467;-41
2023/05/13 00:12:44;;;;;;;12.30;7.30;;;;;;;10.19;100.00;101980.69;7392971;19;20392;-38
2023/05/13 00:15:14;;;;;;;14.50;7.20;;;;;;;10.17;100.00;101980.59;7386861;19;20423;-37
2023/05/13 00:17:44;;;;;;;15.83;7.43;;;;;;;10.13;100.00;101979.53;7387763;19;20424;-37
2023/05/13 00:20:16;;;;;;;13.37;7.33;;;;;;;10.09;100.00;101984.38;7385305;19;20433;-41
2023/05/13 00:22:45;;;;;;;21.23;6.93;;;;;;;10.08;100.00;101988.66;7388435;19;20481;-38
2023/05/13 00:25:15;;;;;;;12.70;6.70;;;;;;;10.04;100.00;101984.06;7386455;19;20411;-38
2023/05/13 00:27:44;;;;;;;14.17;6.50;;;;;;;10.05;100.00;101979.81;7386584;19;20404;-39
2023/05/13 00:30:14;;;;;;;13.80;6.33;;;;;;;10.00;100.00;101985.56;7385040;19;20445;-37
2023/05/13 00:32:44;;;;;;;11.73;7.33;;;;;;;9.97;100.00;101980.25;7392893;19;21166;-37
2023/05/13 00:35:16;;;;;;;13.27;6.30;;;;;;;9.97;100.00;101979.34;7397610;19;20459;-37
2023/05/13 00:37:45;;;;;;;19.27;7.47;;;;;;;9.92;100.00;101983.28;7393963;19;20435;-39
2023/05/13 00:40:19;;;;;;;13.10;7.20;;;;;;;9.92;100.00;101985.88;7395118;19;20450;-43
2023/05/13 00:42:49;;;;;;;11.90;6.17;;;;;;;9.88;100.00;101989.94;7394928;19;20726;-37
2023/05/13 00:45:19;;;;;;;11.40;7.00;;;;;;;9.84;100.00;101988.84;7393479;19;20947;-37
2023/05/13 00:47:49;;;;;;;17.20;7.43;;;;;;;9.81;100.00;101983.53;7395370;19;20926;-37
2023/05/13 00:50:21;;;;;;;11.30;7.13;;;;;;;9.79;100.00;101987.66;7390795;19;20438;-36
2023/05/13 00:52:52;;;;;;;11.60;7.40;;;;;;;9.75;100.00;101988.28;7394394;19;20469;-36
2023/05/13 00:55:22;;;;;;;16.40;7.20;;;;;;;9.73;100.00;101984.69;7392886;19;20439;-37
2023/05/13 00:57:52;;;;;;;12.70;6.63;;;;;;;9.70;100.00;101987.06;7393827;19;20384;-38
2023/05/13 01:00:21;;;;;;;11.47;7.37;;;;;;;9.68;100.00;101984.41;7391026;19;20426;-39
2023/05/13 01:02:55;;;;;;;12.17;7.30;;;;;;;9.64;100.00;101989.25;7394816;19;20415;-37
2023/05/13 01:05:31;;;;;;;12.80;7.93;;;;;;;9.55;100.00;101987.84;7392653;19;20832;-37
2023/05/13 01:08:05;;;;;;;13.20;7.20;;;;;;;9.54;100.00;101991.22;7393281;19;20392;-39
2023/05/13 01:10:40;;;;;;;14.23;7.80;;;;;;;9.50;100.00;101994.41;7389582;19;20797;-37
2023/05/13 01:13:11;;;;;;;15.73;7.30;;;;;;;9.51;100.00;101985.88;7393684;19;20406;-38
2023/05/13 01:15:44;;;;;;;13.43;7.10;;;;;;;9.54;100.00;101988.63;7395720;19;20466;-36
2023/05/13 01:18:17;;;;;;;14.13;7.47;;;;;;;9.50;100.00;101989.25;7392600;19;20399;-37
2023/05/13 01:20:49;;;;;;;12.07;7.20;;;;;;;9.47;100.00;101991.59;7391931;19;20421;-37
2023/05/13 01:23:21;;;;;;;19.70;8.93;;;;;;;9.44;100.00;101991.41;7390779;19;20399;-36
2023/05/13 01:25:51;;;;;;;14.03;7.93;;;;;;;9.38;100.00;101986.72;7391738;19;20956;-37
2023/05/13 01:28:20;;;;;;;13.17;7.63;;;;;;;9.37;100.00;101994.34;7389358;19;20946;-37
2023/05/13 01:30:50;;;;;;;12.00;7.90;;;;;;;9.34;100.00;102001.88;7392302;19;20726;-37
2023/05/13 01:33:20;;;;;;;13.37;7.63;;;;;;;9.35;100.00;102003.66;7390450;19;20392;-37
2023/05/13 01:35:50;;;;;;;12.33;7.83;;;;;;;9.28;100.00;101995.53;7391992;19;20919;-38
2023/05/13 01:38:23;;;;;;;13.20;8.20;;;;;;;9.25;100.00;101999.59;7389178;19;20392;-37
2023/05/13 01:40:52;;;;;;;14.63;8.37;;;;;;;9.22;100.00;102002.84;7394160;19;20728;-37
2023/05/13 01:43:22;;;;;;;14.23;8.60;;;;;;;9.20;100.00;102007.00;7387278;19;20416;-37
2023/05/13 01:45:52;;;;;;;18.17;8.57;;;;;;;9.18;100.00;102011.19;7391472;19;20395;-36
2023/05/13 01:48:22;;;;;;;12.87;8.00;;;;;;;9.18;100.00;102006.03;7389556;19;20395;-38
2023/05/13 01:50:52;;;;;;;15.07;9.20;;;;;;;9.16;100.00;102000.75;7392709;19;20411;-37
2023/05/13 01:53:24;;;;;;;17.47;9.50;;;;;;;9.17;100.00;102009.38;7389843;19;20399;-36
2023/05/13 01:55:54;;;;;;;15.17;9.47;;;;;;;9.15;100.00;102005.81;7392151;19;20387;-37
2023/05/13 01:58:23;;;;;;;14.97;9.80;;;;;;;9.12;100.00;102003.91;7389031;19;20387;-37
2023/05/13 02:00:53;;;;;;;13.00;8.50;;;;;;;9.10;100.00;102010.66;7392285;19;20408;-39
2023/05/13 02:03:22;;;;;;;15.77;8.67;;;;;;;9.07;100.00;102076.50;7389253;19;20919;-37
2023/05/13 02:05:52;;;;;;;16.30;9.33;;;;;;;9.01;100.00;102080.44;7391079;19;20395;-37
2023/05/13 02:08:26;;;;;;;15.30;9.47;;;;;;;9.02;100.00;102069.34;7392934;19;20407;-37
2023/05/13 02:10:57;;;;;;;15.97;8.60;;;;;;;8.94;100.00;102070.50;7391838;19;20399;-37
2023/05/13 02:13:27;;;;;;;17.70;9.33;;;;;;;8.91;100.00;102057.41;7389254;19;20451;-37
2023/05/13 02:15:57;;;;;;;17.13;10.00;;;;;;;8.87;100.00;102061.44;7391470;19;20416;-37
2023/05/13 02:18:26;;;;;;;21.63;10.47;;;;;;;8.86;100.00;102045.88;7391200;19;20395;-37
2023/05/13 02:20:56;;;;;;;17.43;9.63;;;;;;;8.85;100.00;102046.66;7391609;19;20753;-38
2023/05/13 02:23:28;;;;;;;16.93;10.53;;;;;;;8.86;100.00;102051.03;7388620;19;20391;-37
2023/05/13 02:25:58;;;;;;;18.20;10.97;;;;;;;8.84;100.00;102044.88;7391001;19;20391;-37
2023/05/13 02:28:27;;;;;;;25.97;14.27;;;;;;;9.11;100.00;102042.41;7387737;19;20761;-37
2023/05/13 02:30:57;;;;;;;40.93;22.83;;;;;;;9.66;100.00;102031.47;7391111;19;20519;-37
2023/05/13 02:33:26;;;;;;;42.13;24.60;;;;;;;10.03;100.00;102043.28;7388455;19;20391;-37
2023/05/13 02:35:56;;;;;;;27.93;16.70;;;;;;;9.72;100.00;102055.97;7390723;19;20759;-37
2023/05/13 02:38:28;;;;;;;33.13;19.53;;;;;;;9.91;100.00;102058.84;7388460;19;20388;-37
2023/05/13 02:40:58;;;;;;;20.10;11.57;;;;;;;9.79;100.00;102062.41;7390729;19;20411;-37
2023/05/13 02:43:28;;;;;;;21.43;12.23;;;;;;;9.72;100.00;102071.44;7387906;19;20396;-36
2023/05/13 02:45:58;;;;;;;19.43;12.80;;;;;;;9.63;100.00;102070.81;7390535;19;20773;-38
2023/05/13 02:48:27;;;;;;;18.00;10.73;;;;;;;9.59;100.00;102069.72;7386955;19;20741;-37
2023/05/13 02:50:57;;;;;;;43.80;27.37;;;;;;;9.80;100.00;102069.34;7390444;19;20416;-38
2023/05/13 02:53:29;;;;;;;22.43;12.53;;;;;;;9.80;100.00;102077.06;7387945;19;20391;-37
2023/05/13 02:55:59;;;;;;;20.00;11.93;;;;;;;9.47;100.00;102074.03;7389999;19;20403;-37
2023/05/13 02:58:28;;;;;;;19.53;11.77;;;;;;;9.19;100.00;102073.06;7386974;19;20388;-37
2023/05/13 03:00:58;;;;;;;16.50;11.50;;;;;;;9.00;100.00;102073.50;7390359;19;20388;-37
2023/05/13 03:03:27;;;;;;;19.70;11.90;;;;;;;8.87;100.00;102082.03;7387465;19;20395;-37
2023/05/13 03:05:57;;;;;;;20.50;11.50;;;;;;;8.74;100.00;102072.56;7390371;19;20392;-37
2023/05/13 03:08:30;;;;;;;20.63;11.77;;;;;;;8.60;100.00;102068.09;7387502;19;20413;-38
2023/05/13 03:10:59;;;;;;;18.63;12.20;;;;;;;8.58;100.00;102069.69;7390616;19;20395;-37
2023/05/13 03:13:29;;;;;;;19.23;12.47;;;;;;;8.53;100.00;102059.09;7386965;19;20391;-36
2023/05/13 03:15:58;;;;;;;23.30;12.40;;;;;;;8.54;100.00;102057.38;7389787;19;21011;-38
2023/05/13 03:18:30;;;;;;;20.50;13.03;;;;;;;8.47;100.00;102045.75;7386792;19;20412;-37
2023/05/13 03:21:00;;;;;;;17.70;12.00;;;;;;;8.44;100.00;102046.41;7391875;19;20419;-37
2023/05/13 03:23:33;;;;;;;21.67;12.10;;;;;;;8.39;100.00;102032.34;7388583;19;20398;-40
2023/05/13 03:26:03;;;;;;;17.70;12.30;;;;;;;8.40;100.00;102028.97;7389635;19;20387;-38
2023/05/13 03:28:32;;;;;;;21.37;12.73;;;;;;;8.34;100.00;102018.25;7386275;19;20451;-37
2023/05/13 03:31:02;;;;;;;21.23;13.07;;;;;;;8.32;100.00;102012.13;7389947;19;20395;-36
2023/05/13 03:33:31;;;;;;;23.10;13.57;;;;;;;8.29;100.00;102012.78;7386906;19;20755;-38
2023/05/13 03:36:01;;;;;;;19.77;12.77;;;;;;;8.30;100.00;102001.72;7391301;19;20480;-38
2023/05/13 03:38:33;;;;;;;23.00;13.73;;;;;;;8.28;100.00;102000.72;7386278;19;20412;-37
2023/05/13 03:44:13;;;;;;;23.37;13.80;;;;;;;8.19;100.00;102003.53;7402786;19;20608;-40
2023/05/13 03:46:42;;;;;;;23.40;14.17;;;;;;;8.17;100.00;102005.09;7423289;19;20441;-41
2023/05/13 03:49:10;;;;;;;20.83;13.73;;;;;;;8.16;100.00;102003.28;7418369;19;21008;-40
2023/05/13 03:51:39;;;;;;;24.30;15.20;;;;;;;8.19;100.00;102005.19;7419706;19;20379;-42
2023/05/13 03:54:07;;;;;;;24.03;14.60;;;;;;;8.15;100.00;102000.63;7416742;19;20410;-42
2023/05/13 03:56:35;;;;;;;26.03;14.20;;;;;;;8.14;100.00;102002.28;7418232;19;20601;-43
2023/05/13 03:59:03;;;;;;;25.20;15.63;;;;;;;8.18;100.00;101996.59;7414177;19;20406;-42
2023/05/13 04:01:36;;;;;;;25.47;14.67;;;;;;;8.19;100.00;101995.81;7257132;19;3120380;-40
2023/05/13 04:04:05;;;;;;;23.93;15.03;;;;;;;8.18;100.00;101999.19;7418206;19;20194;-43
2023/05/13 04:06:35;;;;;;;30.37;15.50;;;;;;;8.18;100.00;102000.84;7422077;19;20394;-42
2023/05/13 04:09:06;;;;;;;38.30;21.80;;;;;;;8.27;100.00;101996.38;7423078;19;20414;-39
2023/05/13 04:11:36;;;;;;;30.20;19.60;;;;;;;8.29;100.00;101992.22;7424716;19;20395;-40
2023/05/13 04:14:05;;;;;;;36.97;18.30;;;;;;;8.27;100.00;101995.47;7420025;19;20411;-41
2023/05/13 04:16:37;;;;;;;29.83;18.83;;;;;;;8.38;100.00;101989.41;7422780;19;20395;-41
2023/05/13 04:19:07;;;;;;;26.00;16.40;;;;;;;8.41;100.00;101989.59;7419268;19;20760;-41
2023/05/13 04:21:36;;;;;;;30.90;18.73;;;;;;;8.46;100.00;101993.41;7421414;19;20406;-40
2023/05/13 04:24:07;;;;;;;36.37;17.90;;;;;;;8.48;100.00;101991.84;7419589;19;20422;-41
2023/05/13 04:26:37;;;;;;;28.90;16.93;;;;;;;8.55;100.00;101997.47;7421429;19;20398;-41
2023/05/13 04:29:06;;;;;;;29.23;16.63;;;;;;;8.57;100.00;101999.31;7421723;19;20439;-41
2023/05/13 04:31:38;;;;;;;31.27;19.37;;;;;;;8.58;100.00;102005.38;7421385;19;20417;-40
2023/05/13 04:34:08;;;;;;;31.40;19.10;;;;;;;8.59;100.00;102009.72;7419106;19;20407;-42
2023/05/13 04:36:37;;;;;;;35.53;19.93;;;;;;;8.62;100.00;102005.69;7427794;19;20441;-41
2023/05/13 04:39:07;;;;;;;39.67;21.07;;;;;;;8.65;100.00;102005.00;7418895;19;20792;-40
2023/05/13 04:41:36;;;;;;;39.50;23.67;;;;;;;8.69;100.00;102001.88;7425681;19;20437;-42
2023/05/13 04:44:06;;;;;;;34.00;19.37;;;;;;;8.73;100.00;102010.69;7418079;19;20468;-41
2023/05/13 04:46:39;;;;;;;36.83;18.87;;;;;;;8.80;100.00;102006.84;7421119;19;20429;-44
2023/05/13 04:49:08;;;;;;;31.37;19.60;;;;;;;8.85;100.00;102008.06;7419140;19;20986;-42
2023/05/13 04:51:38;;;;;;;36.17;21.27;;;;;;;8.84;100.00;102003.72;7420180;19;20403;-42
2023/05/13 04:54:08;;;;;;;31.93;17.50;;;;;;;8.83;100.00;102009.66;7407288;19;20968;-43
2023/05/13 04:56:38;;;;;;;32.17;17.87;;;;;;;8.83;100.00;102020.84;7392727;19;20392;-41
2023/05/13 04:59:09;;;;;;;28.03;17.77;;;;;;;8.88;100.00;102027.19;7390421;19;20415;-42
2023/05/13 05:01:42;;;;;;;31.80;18.73;;;;;;;8.89;100.00;102022.94;7387990;19;20399;-40
2023/05/13 05:04:11;;;;;;;31.23;17.67;;;;;;;9.01;100.00;102013.50;7391342;19;20502;-42
2023/05/13 05:06:41;;;;;;;28.80;17.47;;;;;;;9.04;100.00;102018.84;7392617;19;20399;-42
2023/05/13 05:09:11;;;;;;;22.27;15.10;;;;;;;9.04;100.00;102028.25;7390271;19;20966;-42
2023/05/13 05:11:40;;;;;;;26.80;16.80;;;;;;;9.12;100.00;102023.63;7391683;19;20396;-42
2023/05/13 05:14:10;;;;;;;31.20;17.40;;;;;;;9.17;100.00;102027.38;7389906;19;20446;-42
2023/05/13 05:16:42;;;;;;;27.60;15.73;;;;;;;9.19;100.00;102036.13;7394913;19;20413;-42
2023/05/13 05:19:11;;;;;;;25.23;13.90;;;;;;;9.18;100.00;102034.34;7389831;19;20411;-41
2023/05/13 05:21:41;;;;;;;24.80;15.80;;;;;;;9.21;100.00;102034.53;7393579;19;20398;-40
2023/05/13 05:24:10;;;;;;;22.97;15.10;;;;;;;9.24;100.00;102031.28;7390142;19;20407;-42
2023/05/13 05:26:40;;;;;;;24.97;14.80;;;;;;;9.41;100.00;102046.19;7392052;19;20392;-43
2023/05/13 05:29:11;;;;;;;29.63;15.03;;;;;;;9.82;100.00;102042.00;7389651;19;20423;-42
2023/05/13 05:31:43;;;;;;;22.13;14.57;;;;;;;10.08;100.00;102047.97;7393310;19;20908;-41
2023/05/13 05:34:13;;;;;;;27.40;15.80;;;;;;;10.36;100.00;102057.44;7389567;19;20423;-43
2023/05/13 05:36:42;;;;;;;33.03;19.37;;;;;;;10.56;100.00;102077.59;7391819;19;20396;-43
2023/05/13 05:39:12;;;;;;;52.10;28.77;;;;;;;10.56;100.00;102091.38;7389448;19;20416;-42
2023/05/13 05:41:42;;;;;;;29.83;15.27;;;;;;;10.77;100.00;102097.00;7393340;19;20397;-41
2023/05/13 05:44:12;;;;;;;22.23;14.67;;;;;;;10.53;100.00;102112.72;7389490;19;20412;-42
2023/05/13 05:46:44;;;;;;;21.63;13.17;;;;;;;10.46;100.00;102114.84;7391629;19;20390;-43
2023/05/13 05:49:13;;;;;;;23.37;14.60;;;;;;;10.52;100.00;102120.41;7389104;19;20413;-42
2023/05/13 05:51:43;;;;;;;22.10;15.10;;;;;;;10.60;100.00;102124.34;7390739;19;20402;-41
2023/05/13 05:54:13;;;;;;;25.40;16.23;;;;;;;10.69;100.00;102117.97;7388979;19;20428;-41
2023/05/13 05:56:42;;;;;;;29.03;14.83;;;;;;;10.67;100.00;102120.47;7391060;19;20388;-41
2023/05/13 05:59:12;;;;;;;20.53;12.37;;;;;;;10.66;100.00;102126.41;7388815;19;20428;-43
2023/05/13 06:01:45;;;;;;;27.03;13.90;;;;;;;10.73;100.00;102119.97;7249070;19;2714716;-43
2023/05/13 06:04:14;;;;;;;22.00;12.90;;;;;;;10.81;100.00;102116.16;7388140;19;20445;-43
2023/05/13 06:06:44;;;;;;;16.77;11.40;;;;;;;10.86;100.00;102119.94;7395370;19;20980;-42
2023/05/13 06:09:14;;;;;;;17.40;11.57;;;;;;;10.90;100.00;102119.34;7388532;19;20432;-41
2023/05/13 06:11:44;;;;;;;19.93;11.50;;;;;;;11.03;100.00;102133.00;7390228;19;20422;-44
2023/05/13 06:14:13;;;;;;;17.77;10.93;;;;;;;11.11;100.00;102113.69;7388325;19;20760;-41
2023/05/13 06:16:45;;;;;;;19.40;10.93;;;;;;;11.26;100.00;102118.91;7390905;19;20401;-41
2023/05/13 06:19:15;;;;;;;17.80;10.77;;;;;;;11.36;100.00;102112.59;7388539;19;20495;-44
2023/05/13 06:21:45;;;;;;;22.20;10.60;;;;;;;11.47;100.00;102108.06;7390222;19;20415;-44
2023/05/13 06:24:14;;;;;;;19.07;10.27;;;;;;;11.56;100.00;102102.56;7387104;19;20435;-43
2023/05/13 06:26:44;;;;;;;23.80;13.63;;;;;;;11.68;100.00;102092.94;7390140;19;20391;-41
2023/05/13 06:29:13;;;;;;;14.70;9.37;;;;;;;11.81;100.00;102091.06;7390231;19;20422;-41
2023/05/13 06:31:45;;;;;;;14.47;9.40;;;;;;;11.92;100.00;102082.25;7390310;19;20392;-43
2023/05/13 06:34:15;;;;;;;17.20;9.37;;;;;;;12.00;100.00;102064.59;7389009;19;20519;-41
2023/05/13 06:36:45;;;;;;;17.03;9.77;;;;;;;12.11;100.00;102055.75;7390565;19;20399;-43
2023/05/13 06:39:14;;;;;;;16.60;9.23;;;;;;;12.22;100.00;102033.09;7389414;19;20411;-42
2023/05/13 06:41:44;;;;;;;16.43;8.90;;;;;;;12.34;100.00;102022.50;7389952;19;20391;-42
2023/05/13 06:44:13;;;;;;;17.67;9.47;;;;;;;12.42;100.00;102012.59;7384250;19;20458;-40
2023/05/13 06:46:46;;;;;;;18.90;8.90;;;;;;;12.51;100.00;101994.94;7389597;19;20814;-42
2023/05/13 06:49:15;;;;;;;12.00;7.37;;;;;;;12.62;100.00;101994.63;7386978;19;20423;-43
2023/05/13 06:51:45;;;;;;;11.57;8.20;;;;;;;12.66;100.00;101975.84;7389133;19;20404;-42
2023/05/13 06:54:15;;;;;;;13.80;7.90;;;;;;;12.76;100.00;101972.94;7387314;19;20419;-44
2023/05/13 06:56:45;;;;;;;16.90;8.00;;;;;;;12.89;100.00;101955.44;7390390;19;20410;-41
2023/05/13 06:59:15;;;;;;;14.80;8.27;;;;;;;12.99;100.00;101938.66;7385335;19;20431;-44
2023/05/13 07:01:47;;;;;;;14.27;7.63;;;;;;;13.07;100.00;101916.63;7388946;19;20406;-41
2023/05/13 07:04:16;;;;;;;15.80;8.17;;;;;;;13.15;100.00;101904.06;7384117;19;20437;-41
2023/05/13 07:06:47;;;;;;;13.43;7.93;;;;;;;13.21;100.00;101856.03;7389811;19;20928;-41
2023/05/13 07:09:17;;;;;;;12.57;7.57;;;;;;;13.31;100.00;101839.22;7388198;19;20429;-41
2023/05/13 07:11:46;;;;;;;12.80;8.10;;;;;;;13.44;100.00;101835.47;7389138;19;20397;-43
2023/05/13 07:14:16;;;;;;;14.43;7.40;;;;;;;13.53;100.00;101806.53;7386730;19;20774;-42
2023/05/13 07:16:48;;;;;;;10.43;7.03;;;;;;;13.66;100.00;101784.69;7388539;19;20402;-41
2023/05/13 07:19:18;;;;;;;11.83;7.67;;;;;;;13.77;100.00;101761.81;7386901;19;20419;-41
2023/05/13 07:21:48;;;;;;;10.13;7.10;;;;;;;13.88;100.00;101759.69;7388520;19;20395;-42
2023/05/13 07:24:17;;;;;;;16.77;7.17;;;;;;;13.93;100.00;101749.53;7386215;19;20764;-44
2023/05/13 07:26:47;;;;;;;9.30;6.33;;;;;;;14.06;100.00;101748.34;7389471;19;20406;-42
2023/05/13 07:29:16;;;;;;;12.83;8.27;;;;;;;14.11;100.00;101695.81;7386225;19;20444;-42
2023/05/13 07:31:49;;;;;;;12.83;7.53;;;;;;;14.29;100.00;101697.41;7388240;19;20973;-42
2023/05/13 07:34:18;;;;;;;9.57;6.30;;;;;;;14.39;100.00;101709.94;7386261;19;20427;-41
2023/05/13 07:36:48;;;;;;;13.90;6.87;;;;;;;14.53;100.00;101710.53;7389081;19;20412;-42
2023/05/13 07:39:17;;;;;;;11.93;6.87;;;;;;;14.66;100.00;101692.84;7385702;19;20432;-41
2023/05/13 07:41:47;;;;;;;9.47;6.90;;;;;;;14.69;100.00;101646.19;7387694;19;20752;-43
2023/05/13 07:44:16;;;;;;;13.30;6.70;;;;;;;14.69;100.00;101613.34;7383012;19;20441;-45
2023/05/13 07:46:52;;;;;;;11.77;7.20;;;;;;;14.81;100.00;101622.44;7388357;19;20764;-43
2023/05/13 07:49:22;;;;;;;14.33;6.87;;;;;;;14.95;100.00;101622.97;7382846;19;20430;-42
2023/05/13 07:51:52;;;;;;;12.80;8.60;;;;;;;15.11;100.00;101608.81;7391250;19;20440;-41
2023/05/13 07:54:21;;;;;;;19.87;9.70;;;;;;;15.21;100.00;101594.44;7386408;19;20457;-42
2023/05/13 07:56:51;;;;;;;13.07;6.40;;;;;;;15.30;100.00;101586.09;7391088;19;20414;-40
2023/05/13 07:59:20;;;;;;;14.70;8.40;;;;;;;15.30;100.00;101547.09;7388197;19;20439;-42
2023/05/13 08:01:52;;;;;;;14.70;7.93;;;;;;;15.40;100.00;101549.19;7389201;19;20437;-41
2023/05/13 08:04:22;;;;;;;12.40;6.00;;;;;;;15.52;100.00;101531.41;7387467;19;20997;-45
2023/05/13 08:06:52;;;;;;;17.43;6.57;;;;;;;15.72;100.00;101531.19;7389686;19;20431;-45
2023/05/13 08:09:21;;;;;;;22.03;9.07;;;;;;;15.79;100.00;101514.94;7388007;19;20461;-43
2023/05/13 08:11:51;;;;;;;11.37;6.43;;;;;;;15.95;100.00;101514.59;7389666;19;20934;-45
2023/05/13 08:14:21;;;;;;;11.10;6.27;;;;;;;15.99;100.00;101500.84;7387750;19;20455;-43
2023/05/13 08:16:53;;;;;;;11.73;7.00;;;;;;;16.09;100.00;101500.28;7390940;19;20435;-42
2023/05/13 08:19:23;;;;;;;12.03;7.13;;;;;;;16.23;100.00;101500.72;7382819;19;20546;-43
2023/05/13 08:21:52;;;;;;;19.33;8.77;;;;;;;16.40;100.00;101502.94;7389207;19;20939;-42
2023/05/13 08:24:22;;;;;;;13.83;6.97;;;;;;;16.49;100.00;101503.19;7382578;19;20453;-44
2023/05/13 08:26:51;;;;;;;13.10;6.30;;;;;;;16.60;100.00;101512.22;7390253;19;20428;-44
2023/05/13 08:29:21;;;;;;;13.70;5.67;;;;;;;16.63;100.00;101531.38;7389454;19;20439;-41
2023/05/13 08:31:53;;;;;;;8.63;5.40;;;;;;;16.77;100.00;101530.03;7395205;19;20411;-42
2023/05/13 08:34:23;;;;;;;16.13;7.07;;;;;;;16.81;100.00;101542.31;7394455;19;20457;-44
2023/05/13 08:36:52;;;;;;;17.60;9.20;;;;;;;16.94;100.00;101511.38;7396516;19;20814;-44
2023/05/13 08:39:22;;;;;;;15.70;7.63;;;;;;;17.04;100.00;101523.88;7393930;19;20452;-41
2023/05/13 08:41:53;;;;;;;11.53;6.60;;;;;;;17.18;100.00;101532.03;7395981;19;20409;-45
2023/05/13 08:44:27;;;;;;;11.07;5.50;;;;;;;17.31;100.00;101554.13;7393278;19;20439;-42
2023/05/13 08:47:05;;;;;;;14.10;8.53;;;;;;;17.40;100.00;101564.78;7395917;19;20835;-42
2023/05/13 08:49:35;;;;;;;15.30;7.67;;;;;;;17.58;100.00;101578.28;7394715;19;20455;-45
2023/05/13 08:52:05;;;;;;;20.23;11.13;;;;;;;17.55;100.00;101607.78;7395920;19;20426;-42
2023/05/13 08:54:35;;;;;;;15.27;8.30;;;;;;;17.60;100.00;101619.25;7394694;19;20446;-41
2023/05/13 08:57:05;;;;;;;17.50;7.90;;;;;;;17.78;100.00;101604.88;7396615;19;20437;-42
2023/05/13 08:59:35;;;;;;;8.83;4.90;;;;;;;17.92;100.00;101632.22;7394689;19;20455;-42
2023/05/13 09:02:07;;;;;;;14.50;6.20;;;;;;;17.93;100.00;101657.50;7395371;19;20422;-43
2023/05/13 09:04:37;;;;;;;13.00;5.27;;;;;;;18.02;100.00;101677.72;7394583;19;20447;-44
2023/05/13 09:07:07;;;;;;;11.50;5.00;;;;;;;18.21;100.00;101671.25;7395155;19;20407;-42
2023/05/13 09:09:37;;;;;;;17.03;6.27;;;;;;;18.29;100.00;101694.06;7395613;19;20458;-43
2023/05/13 09:12:07;;;;;;;13.80;5.80;;;;;;;18.32;100.00;101709.81;7396905;19;20430;-43
2023/05/13 09:14:39;;;;;;;11.00;5.87;;;;;;;18.43;100.00;101717.91;7394968;19;20489;-43
2023/05/13 09:17:11;;;;;;;34.63;13.43;;;;;;;18.52;100.00;101727.72;7396634;19;20411;-43
2023/05/13 09:19:41;;;;;;;13.87;6.00;;;;;;;18.59;100.00;101693.03;7395626;19;20427;-42
2023/05/13 09:22:18;;;;;;;15.47;6.13;;;;;;;18.67;100.00;101716.75;7395239;19;20443;-46
2023/05/13 09:24:55;;;;;;;13.33;6.33;;;;;;;18.83;100.00;101723.22;7394743;19;20442;-44
2023/05/13 09:27:38;;;;;;;9.53;4.70;;;;;;;18.90;100.00;101735.56;7395971;19;20410;-42
2023/05/13 09:30:09;;;;;;;13.83;5.03;;;;;;;18.97;100.00;101736.59;7393969;19;20820;-41
2023/05/13 09:32:43;;;;;;;7.57;4.00;;;;;;;19.06;100.00;101741.19;7395447;19;20435;-43
2023/05/13 09:35:17;;;;;;;10.73;4.00;;;;;;;19.19;100.00;101753.69;7393553;19;20800;-42
2023/05/13 09:37:48;;;;;;;11.63;6.30;;;;;;;19.22;100.00;101755.50;7396884;19;20823;-45
2023/05/13 09:40:18;;;;;;;11.93;5.03;;;;;;;19.29;100.00;101755.63;7393680;19;20439;-42
2023/05/13 09:42:48;;;;;;;8.13;4.33;;;;;;;19.32;97.65;101760.06;7396039;19;20455;-44
2023/05/13 09:45:19;;;;;;;7.20;4.00;;;;;;;19.42;98.87;101751.56;7393139;19;20475;-44
2023/05/13 09:47:53;;;;;;;10.40;5.00;;;;;;;19.58;97.87;101751.00;7396306;19;20404;-45
2023/05/13 09:50:23;;;;;;;9.50;4.30;;;;;;;19.71;96.48;101753.00;7393575;19;21017;-44
2023/05/13 09:52:53;;;;;;;13.17;5.07;;;;;;;19.69;96.50;101747.72;7393957;19;20467;-45
2023/05/13 09:55:24;;;;;;;10.90;5.13;;;;;;;19.70;96.61;101759.09;7393472;19;20479;-46
2023/05/13 09:57:55;;;;;;;11.33;4.70;;;;;;;19.83;96.52;101753.22;7393216;19;20400;-43
2023/05/13 10:00:24;;;;;;;8.73;4.23;;;;;;;19.84;96.92;101755.00;7393570;19;20455;-43
2023/05/13 10:03:04;;;;;;;9.73;4.43;;;;;;;20.03;95.81;101744.91;7393288;19;20456;-43
2023/05/13 10:05:34;;;;;;;9.00;4.70;;;;;;;20.17;93.37;101747.78;7393032;19;20447;-43
2023/05/13 10:08:05;;;;;;;10.23;3.70;;;;;;;20.31;93.26;101750.59;7393585;19;20403;-41
2023/05/13 10:10:36;;;;;;;8.97;4.13;;;;;;;20.20;91.75;101746.94;7393663;19;20443;-43
2023/05/13 10:13:09;;;;;;;9.10;5.87;;;;;;;20.27;93.31;101755.78;7393470;19;21006;-42
2023/05/13 10:15:47;;;;;;;9.63;4.50;;;;;;;20.44;94.14;101750.81;7393263;19;20458;-44
2023/05/13 10:18:21;;;;;;;12.00;5.17;;;;;;;20.47;93.80;101751.75;7391932;19;20403;-42
2023/05/13 10:20:51;;;;;;;7.00;4.40;;;;;;;20.59;92.65;101744.94;7393896;19;20404;-46
2023/05/13 10:23:23;;;;;;;8.27;3.77;;;;;;;20.71;93.26;101752.13;7391592;19;20470;-43
2023/05/13 10:25:55;;;;;;;7.90;4.47;;;;;;;20.72;91.82;101751.28;7393214;19;20415;-43
2023/05/13 10:28:25;;;;;;;7.43;4.10;;;;;;;20.84;92.50;101751.50;7392137;19;20430;-42
2023/05/13 10:30:54;;;;;;;8.17;4.70;;;;;;;20.72;91.05;101743.41;7393503;19;20423;-42
2023/05/13 10:33:28;;;;;;;8.60;4.20;;;;;;;20.78;92.54;101740.88;7390474;19;20809;-44
2023/05/13 10:36:06;;;;;;;8.40;4.20;;;;;;;20.84;91.36;101741.00;7393667;19;20400;-46
2023/05/13 10:38:47;;;;;;;13.60;7.30;;;;;;;20.81;89.25;101745.28;7390778;19;20410;-43
2023/05/13 10:41:28;;;;;;;13.00;4.60;;;;;;;20.76;90.35;101738.22;7395213;19;20407;-43
2023/05/13 10:43:58;;;;;;;11.53;4.57;;;;;;;20.87;90.58;101743.66;7389243;19;20466;-45
2023/05/13 10:46:28;;;;;;;10.23;4.33;;;;;;;21.00;89.64;101731.59;7393468;19;20427;-41
2023/05/13 10:49:01;;;;;;;12.77;6.43;;;;;;;21.10;89.04;101743.09;7391704;19;20801;-44
2023/05/13 10:51:30;;;;;;;10.33;4.13;;;;;;;21.17;88.76;101744.94;7393355;19;20407;-42
2023/05/13 10:54:00;;;;;;;16.50;6.37;;;;;;;21.27;86.18;101745.09;7389666;19;20458;-42
2023/05/13 10:56:30;;;;;;;9.43;4.77;;;;;;;21.25;83.60;101738.91;7393459;19;20416;-43
2023/05/13 10:59:01;;;;;;;5.60;3.40;;;;;;;21.31;85.78;101744.22;7391067;19;21307;-42
2023/05/13 11:01:32;;;;;;;9.60;5.20;;;;;;;21.17;84.96;101731.81;7393171;19;20419;-44
2023/05/13 11:04:06;;;;;;;10.83;4.63;;;;;;;21.31;86.00;101733.75;7389729;19;20435;-40
2023/05/13 11:06:38;;;;;;;10.40;4.20;;;;;;;21.45;85.04;101723.41;7394194;19;20407;-44
2023/05/13 11:09:08;;;;;;;10.10;4.80;;;;;;;21.37;86.28;101710.19;7391535;19;20447;-43
2023/05/13 11:11:38;;;;;;;9.20;5.10;;;;;;;21.26;87.32;101727.53;7395522;19;20414;-41
2023/05/13 11:14:10;;;;;;;9.00;4.80;;;;;;;21.17;87.18;101729.19;7390316;19;20439;-42
2023/05/13 11:16:39;;;;;;;10.97;7.03;;;;;;;21.22;85.53;101731.00;7394123;19;20422;-43
2023/05/13 11:19:21;;;;;;;6.07;4.07;;;;;;;21.44;85.66;101722.53;7390299;19;20447;-39
2023/05/13 11:21:53;;;;;;;7.50;4.13;;;;;;;21.59;84.88;101726.22;7392138;19;20403;-43
2023/05/13 11:24:24;;;;;;;11.87;5.10;;;;;;;21.61;83.73;101713.97;7390264;19;20446;-43
2023/05/13 11:26:55;;;;;;;7.27;3.97;;;;;;;22.04;84.93;101723.19;7392562;19;20433;-41
2023/05/13 11:29:32;;;;;;;18.10;4.80;;;;;;;22.24;83.30;101726.88;7390748;19;20447;-42